sensor_id;sensor_type;location;lat;lon;timestamp;P1;durP1;ratioP1;P2;durP2;ratioP2
45734;SDS011;31446;49.632;8.328;2023-03-20T00:14:42;6.35;;;4.88;;
45734;SDS011;31446;49.632;8.328;2023-03-20T00:29:48;10.80;;;5.78;;
45734;SDS011;31446;49.632;8.328;2023-03-20T00:44:55;12.65;;;5.80;;
45734;SDS011;31446;49.632;8.328;2023-03-20T01:00:03;8.68;;;6.18;;
45734;SDS011;31446;49.632;8.328;2023-03-20T01:15:22;12.13;;;8.38;;
45734;SDS011;31446;49.632;8.328;2023-03-20T01:30:32;12.10;;;7.38;;
45734;SDS011;31446;49.632;8.328;2023-03-20T01:45:38;11.57;;;7.65;;
45734;SDS011;31446;49.632;8.328;2023-03-20T02:00:55;15.52;;;10.60;;
45734;SDS011;31446;49.632;8.328;2023-03-20T02:16:06;18.48;;;13.60;;
45734;SDS011;31446;49.632;8.328;2023-03-20T02:31:30;20.13;;;15.15;;
45734;SDS011;31446;49.632;8.328;2023-03-20T02:46:51;24.70;;;15.35;;
45734;SDS011;31446;49.632;8.328;2023-03-20T03:02:04;23.27;;;16.08;;
45734;SDS011;31446;49.632;8.328;2023-03-20T03:17:13;22.15;;;16.05;;
45734;SDS011;31446;49.632;8.328;2023-03-20T03:32:27;25.10;;;15.85;;
45734;SDS011;31446;49.632;8.328;2023-03-20T03:47:36;22.75;;;16.10;;
45734;SDS011;31446;49.632;8.328;2023-03-20T04:02:48;26.73;;;17.38;;
45734;SDS011;31446;49.632;8.328;2023-03-20T04:17:57;30.60;;;18.30;;
45734;SDS011;31446;49.632;8.328;2023-03-20T04:33:04;28.25;;;17.25;;
45734;SDS011;31446;49.632;8.328;2023-03-20T04:48:10;32.22;;;18.15;;
45734;SDS011;31446;49.632;8.328;2023-03-20T05:03:17;30.98;;;18.60;;
45734;SDS011;31446;49.632;8.328;2023-03-20T05:18:23;33.58;;;19.85;;
45734;SDS011;31446;49.632;8.328;2023-03-20T05:33:30;36.47;;;21.58;;
45734;SDS011;31446;49.632;8.328;2023-03-20T05:48:36;35.47;;;20.45;;
45734;SDS011;31446;49.632;8.328;2023-03-20T06:03:43;32.92;;;20.48;;
45734;SDS011;31446;49.632;8.328;2023-03-20T06:18:49;33.20;;;20.70;;
45734;SDS011;31446;49.632;8.328;2023-03-20T06:33:56;39.35;;;21.75;;
45734;SDS011;31446;49.632;8.328;2023-03-20T06:49:02;36.13;;;22.33;;
45734;SDS011;31446;49.632;8.328;2023-03-20T07:04:09;38.90;;;23.30;;
45734;SDS011;31446;49.632;8.328;2023-03-20T07:19:16;38.80;;;24.25;;
45734;SDS011;31446;49.632;8.328;2023-03-20T07:34:23;41.47;;;24.63;;
45734;SDS011;31446;49.632;8.328;2023-03-20T07:49:30;44.58;;;25.73;;
45734;SDS011;31446;49.632;8.328;2023-03-20T08:04:37;44.40;;;23.52;;
45734;SDS011;31446;49.632;8.328;2023-03-20T08:19:44;44.08;;;23.70;;
45734;SDS011;31446;49.632;8.328;2023-03-20T08:34:51;38.45;;;22.27;;
45734;SDS011;31446;49.632;8.328;2023-03-20T08:49:58;35.65;;;21.65;;
45734;SDS011;31446;49.632;8.328;2023-03-20T09:05:04;33.88;;;19.65;;
45734;SDS011;31446;49.632;8.328;2023-03-20T09:20:12;22.88;;;14.90;;
45734;SDS011;31446;49.632;8.328;2023-03-20T09:35:20;24.02;;;13.30;;
45734;SDS011;31446;49.632;8.328;2023-03-20T09:50:28;20.55;;;12.38;;
45734;SDS011;31446;49.632;8.328;2023-03-20T10:05:41;15.07;;;9.18;;
45734;SDS011;31446;49.632;8.328;2023-03-20T10:20:53;12.02;;;8.75;;
45734;SDS011;31446;49.632;8.328;2023-03-20T10:36:06;11.52;;;8.45;;
45734;SDS011;31446;49.632;8.328;2023-03-20T10:51:20;17.90;;;12.52;;
45734;SDS011;31446;49.632;8.328;2023-03-20T11:06:29;14.88;;;9.77;;
45734;SDS011;31446;49.632;8.328;2023-03-20T11:21:43;11.70;;;7.78;;
45734;SDS011;31446;49.632;8.328;2023-03-20T11:36:55;10.98;;;8.60;;
45734;SDS011;31446;49.632;8.328;2023-03-20T11:52:10;12.60;;;7.93;;
45734;SDS011;31446;49.632;8.328;2023-03-20T12:07:19;9.18;;;6.88;;
45734;SDS011;31446;49.632;8.328;2023-03-20T12:22:34;8.48;;;5.53;;
45734;SDS011;31446;49.632;8.328;2023-03-20T12:37:44;7.97;;;4.78;;
45734;SDS011;31446;49.632;8.328;2023-03-20T12:52:52;5.07;;;2.95;;
45734;SDS011;31446;49.632;8.328;2023-03-20T13:08:16;6.73;;;3.10;;
45734;SDS011;31446;49.632;8.328;2023-03-20T13:23:36;5.00;;;3.50;;
45734;SDS011;31446;49.632;8.328;2023-03-20T13:38:49;4.85;;;3.05;;
45734;SDS011;31446;49.632;8.328;2023-03-20T13:54:05;3.95;;;2.50;;
45734;SDS011;31446;49.632;8.328;2023-03-20T14:09:29;8.93;;;3.53;;
45734;SDS011;31446;49.632;8.328;2023-03-20T14:24:37;5.65;;;2.85;;
45734;SDS011;31446;49.632;8.328;2023-03-20T14:39:46;5.65;;;2.83;;
45734;SDS011;31446;49.632;8.328;2023-03-20T14:54:55;4.28;;;3.08;;
45734;SDS011;31446;49.632;8.328;2023-03-20T15:10:32;3.42;;;2.67;;
45734;SDS011;31446;49.632;8.328;2023-03-20T15:25:40;8.13;;;3.35;;
45734;SDS011;31446;49.632;8.328;2023-03-20T15:40:48;7.32;;;2.25;;
45734;SDS011;31446;49.632;8.328;2023-03-20T15:55:56;5.80;;;2.17;;
45734;SDS011;31446;49.632;8.328;2023-03-20T16:11:13;2.45;;;1.58;;
45734;SDS011;31446;49.632;8.328;2023-03-20T16:26:23;3.25;;;1.40;;
45734;SDS011;31446;49.632;8.328;2023-03-20T16:41:39;3.88;;;1.88;;
45734;SDS011;31446;49.632;8.328;2023-03-20T16:56:53;4.65;;;2.53;;
45734;SDS011;31446;49.632;8.328;2023-03-20T17:12:03;7.43;;;2.50;;
45734;SDS011;31446;49.632;8.328;2023-03-20T17:27:16;6.15;;;2.20;;
45734;SDS011;31446;49.632;8.328;2023-03-20T17:42:25;4.40;;;2.55;;
45734;SDS011;31446;49.632;8.328;2023-03-20T17:57:38;6.60;;;2.42;;
45734;SDS011;31446;49.632;8.328;2023-03-20T18:12:49;7.82;;;2.60;;
45734;SDS011;31446;49.632;8.328;2023-03-20T18:27:57;9.88;;;4.00;;
45734;SDS011;31446;49.632;8.328;2023-03-20T18:43:09;4.63;;;2.85;;
45734;SDS011;31446;49.632;8.328;2023-03-20T18:58:19;15.63;;;3.53;;
45734;SDS011;31446;49.632;8.328;2023-03-20T19:13:27;4.32;;;2.47;;
45734;SDS011;31446;49.632;8.328;2023-03-20T19:28:34;9.05;;;3.45;;
45734;SDS011;31446;49.632;8.328;2023-03-20T19:43:40;12.00;;;6.70;;
45734;SDS011;31446;49.632;8.328;2023-03-20T19:58:51;23.50;;;12.85;;
45734;SDS011;31446;49.632;8.328;2023-03-20T20:14:01;9.73;;;5.75;;
45734;SDS011;31446;49.632;8.328;2023-03-20T20:29:09;11.82;;;3.85;;
45734;SDS011;31446;49.632;8.328;2023-03-20T20:44:16;6.35;;;4.07;;
45734;SDS011;31446;49.632;8.328;2023-03-20T20:59:22;11.57;;;4.47;;
45734;SDS011;31446;49.632;8.328;2023-03-20T21:14:29;13.45;;;4.55;;
45734;SDS011;31446;49.632;8.328;2023-03-20T21:29:35;10.27;;;4.10;;
45734;SDS011;31446;49.632;8.328;2023-03-20T21:44:42;10.95;;;4.65;;
45734;SDS011;31446;49.632;8.328;2023-03-20T21:59:49;10.52;;;4.57;;
45734;SDS011;31446;49.632;8.328;2023-03-20T22:14:57;14.43;;;5.55;;
45734;SDS011;31446;49.632;8.328;2023-03-20T22:30:04;12.70;;;4.72;;
45734;SDS011;31446;49.632;8.328;2023-03-20T22:45:12;12.98;;;5.55;;
45734;SDS011;31446;49.632;8.328;2023-03-20T23:00:19;10.45;;;4.63;;
45734;SDS011;31446;49.632;8.328;2023-03-20T23:15:26;14.13;;;5.03;;
45734;SDS011;31446;49.632;8.328;2023-03-20T23:30:33;14.23;;;5.07;;
45734;SDS011;31446;49.632;8.328;2023-03-20T23:45:39;10.93;;;5.32;;
